Weather observations for the past three days for
Tonopah, Tonopah Airport
Imperial (Metric)
Date Time (pdt) Wind (mph) Vis. (mi.) Weather Sky Cond. Temperature (ºF) Relative Humidity Wind Chill (°F) Heat Index (°F) Pressure Precipitation (in)
Air Dwpt 6 hour altimeter (in) sea level (mb) 1 hr 3 hr 6 hr
Max. Min.
02 14:56 S 9 G 22 10.00 Fair CLR 72 18 13% 30.04 1012.6
02 13:56 S 8 G 24 10.00 Fair CLR 70 17.1 13% 30.07 1013.7
02 12:56 S 14 G 25 10.00 Fair CLR 71.1 19 14% 30.09 1014.2
02 11:56 SW 16 G 23 10.00 Fair CLR 69.1 17.1 14% 30.11 1013.9
02 10:56 SE 14 G 21 10.00 Fair CLR 64.9 16 66.9 39.9 15% 30.13 1014.5
02 09:56 SE 15 10.00 Fair CLR 62.1 18 18% 30.15 1014.9
02 08:56 SE 3 10.00 Fair CLR 55.9 19.9 24% 30.15 1015.7
02 07:56 Calm 10.00 Fair CLR 51.1 23 33% 30.15 1015.9
02 06:56 N 6 10.00 Fair CLR 43 26.1 51% 40 30.14 1016.5
02 05:56 N 8 10.00 Fair CLR 41 25 53% 36 30.13 1016.6
02 04:56 NW 7 10.00 Fair CLR 41 25 66 39.9 53% 37 30.13 1016.8
02 03:56 N 7 10.00 Fair CLR 39.9 26.1 58% 36 30.13 1016.8
02 02:56 N 9 10.00 Fair CLR 44.1 25 47% 40 30.12 1016.3
02 01:56 N 10 10.00 Fair CLR 44.1 26.1 49% 39 30.12 1016.6
02 00:56 Calm 10.00 Fair CLR 45 28 52% 30.13 1016.8
01 19:56 SE 7 10.00 Fair CLR 60.1 24.1 25% 30.07 1014.1
01 18:56 SE 8 10.00 Fair CLR 66 19 16% 30.06 1013.5
01 17:56 SE 8 10.00 Fair CLR 68 19 15% 30.06 1013.7
01 16:56 Vrbl 6 10.00 Fair CLR 68 19 69.1 61 15% 30.07 1013.7
01 15:56 Vrbl 5 10.00 Fair CLR 66.9 18 15% 30.07 1014.1
01 14:56 S 10 G 22 10.00 Fair CLR 68 19 15% 30.1 1014.6
01 13:56 Calm 10.00 Fair CLR 66 16 14% 30.1 1015.0
01 12:56 Calm 10.00 Fair CLR 64 15.1 15% 30.11 1015.4
01 11:56 Vrbl 7 G 18 10.00 Fair CLR 64 14 14% 30.14 1016.1
01 10:56 NE 6 10.00 Fair CLR 62.1 17.1 63 44.1 17% 30.14 1016.2
01 09:56 NE 13 G 18 10.00 Fair CLR 62.1 17.1 17% 30.14 1015.9
01 08:56 N 8 10.00 Fair CLR 57.9 24.1 27% 30.14 1015.9
01 07:56 N 15 10.00 Fair CLR 52 24.1 34% 30.13 1015.9
01 06:56 N 16 10.00 Fair CLR 46.9 23 39% 41 30.11 1015.7
01 05:56 N 17 10.00 Fair CLR 44.1 24.1 45% 37 30.09 1014.9
01 04:56 N 15 10.00 Fair CLR 46 24.1 54 45 42% 40 30.08 1014.3
01 03:56 N 15 10.00 Fair CLR 45 25 46% 39 30.08 1014.7
01 02:56 N 14 10.00 Fair CLR 46.9 25 42% 42 30.07 1013.7
01 01:56 N 12 10.00 Fair CLR 48 26.1 42% 44 30.07 1013.8
01 00:56 N 13 10.00 Fair CLR 48.9 26.1 41% 44 30.07 1013.7
30 23:56 N 13 10.00 Partly Cloudy SCT100 50 28 43% 46 30.06 1013.8
30 22:56 N 12 10.00 Fair CLR 54 26.1 69.1 54 34% 30.05 1012.9
30 21:56 N 14 10.00 Mostly Cloudy BKN100 57.9 24.1 27% 30.03 1012.1
30 20:56 N 10 10.00 Overcast OVC100 61 24.1 24% 30.01 1011.3
30 19:56 NE 5 10.00 Overcast OVC110 63 27 26% 29.98 1010.7
30 18:56 W 8 10.00 A Few Clouds FEW110 64 21 19% 29.98 1010.8
30 17:56 NW 12 G 20 10.00 Mostly Cloudy BKN110 66.9 19 16% 29.98 1010.6
30 16:56 Calm 10.00 Mostly Cloudy BKN110 68 19 68 60.1 15% 29.98 1011.0
30 15:56 Calm 10.00 Partly Cloudy SCT100 64.9 19 17% 30 1011.8
30 14:56 Calm 10.00 A Few Clouds FEW100 66 21 18% 30.02 1012.2
30 13:56 Calm 10.00 Mostly Cloudy BKN095 64.9 19.9 18% 30.04 1012.7
30 12:56 Vrbl 6 10.00 A Few Clouds FEW095 64.9 23 20% 30.05 1013.0
30 11:56 Vrbl 5 10.00 Mostly Cloudy BKN090 62.1 23 22% 30.07 1014.5
30 10:56 Calm 10.00 Mostly Cloudy BKN090 61 21 62.1 44.1 21% 30.08 1014.9
30 09:56 Vrbl 3 10.00 Fair CLR 59 24.1 26% 30.09 1015.1
30 08:56 N 10 10.00 A Few Clouds FEW095 57 26.1 30% 30.09 1015.4
30 07:56 N 10 10.00 Overcast OVC095 52 28 40% 30.1 1015.8
30 06:56 N 16 10.00 Overcast OVC095 46.9 27 46% 41 30.1 1015.2
30 05:56 N 14 10.00 Overcast OVC090 46 28.9 51% 40 30.08 1014.9
30 04:56 N 13 10.00 Fair CLR 44.1 30 50 44.1 58% 38 30.08 1015.1
30 03:56 N 13 10.00 Fair CLR 45 30 56% 39 30.08 1014.9
30 02:56 N 13 10.00 Overcast OVC100 46.9 30 52% 42 30.08 1014.7
30 01:56 N 13 10.00 Overcast OVC100 48 30.9 52% 43 30.09 1015.1
30 00:56 N 8 10.00 Mostly Cloudy BKN110 50 32 50% 47 30.1 1015.4
29 23:56 N 6 10.00 Partly Cloudy SCT100 46.9 34 61% 45 30.09 1015.7
29 22:56 NW 7 10.00 Fair CLR 48.9 33.1 63 48 55% 46 30.08 1015.2
29 21:56 NE 7 10.00 Fair CLR 51.1 33.1 50% 30.09 1015.3
29 20:56 Calm 10.00 Fair CLR 51.1 35.1 54% 30.07 1015.1
29 19:56 SW 7 10.00 A Few Clouds FEW100 54 33.1 45% 30.05 1014.7
29 18:56 W 6 10.00 Partly Cloudy SCT095 62.1 24.1 23% 30.04 1014.4
29 17:56 SW 5 10.00 Fair CLR 62.1 21 21% 30.05 1014.7
29 16:56 Vrbl 6 10.00 A Few Clouds FEW090 62.1 19.9 64 55.9 20% 30.05 1014.8
29 15:56 Vrbl 7 10.00 Partly Cloudy SCT080 62.1 27 26% 30.07 1015.3
Date Time (pdt) Wind (mph) Vis. (mi.) Weather Sky Cond. Air Dwpt Max. Min. Relative Humidity Wind Chill (°F) Heat Index (°F) altimeter (in) sea level (mb) 1 hr 3 hr 6 hr
6 hour
Temperature (ºF) Pressure Precipitation (in)